Time;durP1;ratioP1;P1;durP2;ratioP2;P2;SDS_P1;SDS_P2;PMS_P1;PMS_P2;Temp;Humidity;BMP_temperature;BMP_pressure;BME280_temperature;BME280_humidity;BME280_pressure;Samples;Min_cycle;Max_cycle;Signal;HPM_P1;HPM_P2
2023/12/19 00:01:57;;;;;;;;;;;;;;;;;;5033640;28;20360;-53
2023/12/19 00:04:23;;;;;;;;;;;;;;;;;;5036529;28;20383;-53
2023/12/19 00:06:49;;;;;;;;;;;;;;;;;;5035426;28;20320;-52
2023/12/19 00:09:15;;;;;;;;;;;;;;;;;;5028050;28;19952;-54
2023/12/19 00:11:41;;;;;;;;;;;;;;;;;;5031606;28;19990;-54
2023/12/19 00:14:07;;;;;;;;;;;;;;;;;;5025288;28;20348;-54
2023/12/19 00:16:33;;;;;;;;;;;;;;;;;;5029385;28;20364;-55
2023/12/19 00:18:59;;;;;;;;;;;;;;;;;;5025025;28;19917;-53
2023/12/19 00:21:25;;;;;;;;;;;;;;;;;;5035442;28;19917;-54
2023/12/19 00:23:51;;;;;;;;;;;;;;;;;;5028097;28;19913;-53
2023/12/19 00:26:17;;;;;;;;;;;;;;;;;;5031498;28;19917;-53
2023/12/19 00:28:44;;;;;;;;;;;;;;;;;;5033840;28;20365;-53
2023/12/19 00:31:10;;;;;;;;;;;;;;;;;;5029420;28;19994;-54
2023/12/19 00:33:35;;;;;;;;;;;;;;;;;;5024376;28;19917;-53
2023/12/19 00:36:01;;;;;;;;;;;;;;;;;;5031532;28;20882;-53
2023/12/19 00:38:27;;;;;;;;;;;;;;;;;;5038336;28;19948;-52
2023/12/19 00:40:53;;;;;;;;;;;;;;;;;;5033249;28;20439;-54
2023/12/19 00:43:19;;;;;;;;;;;;;;;;;;5033036;28;19960;-57
2023/12/19 00:45:45;;;;;;;;;;;;;;;;;;5026049;28;19963;-58
2023/12/19 00:48:12;;;;;;;;;;;;;;;;;;5035018;28;19914;-58
2023/12/19 00:50:39;;;;;;;;;;;;;;;;;;5033191;28;19948;-58
2023/12/19 00:53:05;;;;;;;;;;;;;;;;;;5034588;28;20438;-58
2023/12/19 00:55:30;;;;;;;;;;;;;;;;;;5038066;28;19963;-57
2023/12/19 00:57:56;;;;;;;;;;;;;;;;;;5022748;28;20282;-58
2023/12/19 01:00:23;;;;;;;;;;;;;;;;;;5032218;28;19953;-58
2023/12/19 01:02:49;;;;;;;;;;;;;;;;;;5036151;28;19925;-57
2023/12/19 01:05:14;;;;;;;;;;;;;;;;;;5029588;28;19913;-58
2023/12/19 01:07:40;;;;;;;;;;;;;;;;;;5030913;28;20062;-57
2023/12/19 01:10:06;;;;;;;;;;;;;;;;;;5032898;28;19967;-58
2023/12/19 01:12:32;;;;;;;;;;;;;;;;;;5028360;28;19998;-58
2023/12/19 01:14:59;;;;;;;;;;;;;;;;;;5033056;28;20471;-57
2023/12/19 01:17:25;;;;;;;;;;;;;;;;;;5023008;28;19957;-57
2023/12/19 01:19:51;;;;;;;;;;;;;;;;;;5036631;28;19959;-58
2023/12/19 01:22:17;;;;;;;;;;;;;;;;;;5030548;28;20051;-58
2023/12/19 01:24:43;;;;;;;;;;;;;;;;;;5029242;28;19965;-58
2023/12/19 01:27:09;;;;;;;;;;;;;;;;;;5024867;28;19975;-57
2023/12/19 01:29:35;;;;;;;;;;;;;;;;;;5029614;28;20004;-56
2023/12/19 01:32:01;;;;;;;;;;;;;;;;;;5029181;28;19964;-57
2023/12/19 01:34:26;;;;;;;;;;;;;;;;;;5030259;28;20444;-57
2023/12/19 01:36:54;;;;;;;;;;;;;;;;;;5026690;28;20466;-58
2023/12/19 01:39:21;;;;;;;;;;;;;;;;;;5030670;28;19913;-58
2023/12/19 01:41:46;;;;;;;;;;;;;;;;;;5044247;28;19917;-58
2023/12/19 01:44:12;;;;;;;;;;;;;;;;;;5025225;28;19963;-58
2023/12/19 01:46:38;;;;;;;;;;;;;;;;;;5034762;28;19956;-57
2023/12/19 01:49:04;;;;;;;;;;;;;;;;;;5030696;28;20385;-57
2023/12/19 01:51:30;;;;;;;;;;;;;;;;;;5028298;28;20456;-58
2023/12/19 01:53:56;;;;;;;;;;;;;;;;;;5027014;28;19956;-57
2023/12/19 01:56:23;;;;;;;;;;;;;;;;;;5032467;28;19967;-58
2023/12/19 01:58:50;;;;;;;;;;;;;;;;;;5037182;28;21349;-58
2023/12/19 02:01:16;;;;;;;;;;;;;;;;;;5024189;28;20317;-58
2023/12/19 02:03:41;;;;;;;;;;;;;;;;;;5025877;28;19960;-53
2023/12/19 02:06:07;;;;;;;;;;;;;;;;;;5038433;28;20441;-54
2023/12/19 02:08:33;;;;;;;;;;;;;;;;;;5029268;28;20380;-55
2023/12/19 02:10:59;;;;;;;;;;;;;;;;;;5030242;28;19986;-53
2023/12/19 02:13:25;;;;;;;;;;;;;;;;;;5026630;28;19917;-53
2023/12/19 02:15:51;;;;;;;;;;;;;;;;;;5023768;28;20520;-53
2023/12/19 02:18:17;;;;;;;;;;;;;;;;;;5025163;28;19912;-52
2023/12/19 02:20:43;;;;;;;;;;;;;;;;;;5028076;28;19960;-56
2023/12/19 02:23:09;;;;;;;;;;;;;;;;;;5015373;28;19964;-55
2023/12/19 02:25:35;;;;;;;;;;;;;;;;;;5025486;28;19956;-57
2023/12/19 02:28:01;;;;;;;;;;;;;;;;;;5021241;28;20015;-58
2023/12/19 02:30:27;;;;;;;;;;;;;;;;;;5020707;28;19957;-54
2023/12/19 02:32:53;;;;;;;;;;;;;;;;;;5015186;28;19979;-56
2023/12/19 02:35:19;;;;;;;;;;;;;;;;;;5020911;28;20380;-57
2023/12/19 02:37:45;;;;;;;;;;;;;;;;;;5022653;28;20486;-57
2023/12/19 02:40:12;;;;;;;;;;;;;;;;;;5027127;28;19949;-57
2023/12/19 02:42:38;;;;;;;;;;;;;;;;;;5028365;28;19917;-57
2023/12/19 02:45:04;;;;;;;;;;;;;;;;;;5028166;28;19971;-56
2023/12/19 02:47:30;;;;;;;;;;;;;;;;;;5027443;28;19948;-57
2023/12/19 02:49:56;;;;;;;;;;;;;;;;;;5028634;28;20002;-52
2023/12/19 02:52:22;;;;;;;;;;;;;;;;;;5025256;28;19948;-53
2023/12/19 02:54:48;;;;;;;;;;;;;;;;;;5023658;28;19968;-52
2023/12/19 02:57:13;;;;;;;;;;;;;;;;;;5023540;28;19917;-53
2023/12/19 02:59:39;;;;;;;;;;;;;;;;;;5026547;28;20071;-54
2023/12/19 03:02:05;;;;;;;;;;;;;;;;;;5023872;28;20046;-54
2023/12/19 03:04:31;;;;;;;;;;;;;;;;;;5027480;28;20025;-54
2023/12/19 03:06:57;;;;;;;;;;;;;;;;;;5027278;28;20028;-53
2023/12/19 03:09:23;;;;;;;;;;;;;;;;;;5028784;28;20006;-53
2023/12/19 03:11:49;;;;;;;;;;;;;;;;;;5028080;28;19992;-53
2023/12/19 03:14:15;;;;;;;;;;;;;;;;;;5031070;28;20014;-53
2023/12/19 03:16:41;;;;;;;;;;;;;;;;;;5026605;28;20331;-54
2023/12/19 03:19:07;;;;;;;;;;;;;;;;;;5031037;28;19961;-53
2023/12/19 03:21:33;;;;;;;;;;;;;;;;;;5032607;28;20364;-53
2023/12/19 03:23:59;;;;;;;;;;;;;;;;;;5025409;28;20357;-54
2023/12/19 03:26:25;;;;;;;;;;;;;;;;;;5026310;28;19956;-53
2023/12/19 03:28:51;;;;;;;;;;;;;;;;;;5025242;28;19920;-53
2023/12/19 03:31:16;;;;;;;;;;;;;;;;;;5029092;28;20376;-53
2023/12/19 03:33:42;;;;;;;;;;;;;;;;;;5030627;28;20491;-53
2023/12/19 03:36:08;;;;;;;;;;;;;;;;;;5033007;28;20011;-52
2023/12/19 03:38:35;;;;;;;;;;;;;;;;;;5034487;28;20019;-56
2023/12/19 03:41:01;;;;;;;;;;;;;;;;;;5026631;28;19914;-52
2023/12/19 03:43:27;;;;;;;;;;;;;;;;;;5025337;28;19943;-54
2023/12/19 03:45:57;;;;;;;;;;;;;;;;;;5026121;28;20452;-55
2023/12/19 03:48:23;;;;;;;;;;;;;;;;;;5033675;28;19927;-57
2023/12/19 03:50:50;;;;;;;;;;;;;;;;;;5027422;28;20023;-57
2023/12/19 03:53:16;;;;;;;;;;;;;;;;;;5022772;28;20377;-57
2023/12/19 03:55:42;;;;;;;;;;;;;;;;;;5032291;28;20066;-57
2023/12/19 03:58:08;;;;;;;;;;;;;;;;;;5009154;28;20277;-56
2023/12/19 04:00:34;;;;;;;;;;;;;;;;;;5030646;28;19983;-56
2023/12/19 04:03:00;;;;;;;;;;;;;;;;;;5029870;28;20056;-57
2023/12/19 04:05:26;;;;;;;;;;;;;;;;;;5031860;28;20052;-56
2023/12/19 04:07:52;;;;;;;;;;;;;;;;;;5038401;28;20039;-57
2023/12/19 04:10:18;;;;;;;;;;;;;;;;;;5032425;28;20001;-56
2023/12/19 04:12:44;;;;;;;;;;;;;;;;;;5037213;28;20022;-56
2023/12/19 04:15:10;;;;;;;;;;;;;;;;;;5043173;28;19968;-55
2023/12/19 04:17:36;;;;;;;;;;;;;;;;;;5030339;28;20052;-56
2023/12/19 04:20:03;;;;;;;;;;;;;;;;;;5038494;28;19913;-56
2023/12/19 04:22:29;;;;;;;;;;;;;;;;;;5032213;28;20435;-56
2023/12/19 04:24:55;;;;;;;;;;;;;;;;;;5027782;28;20008;-56
2023/12/19 04:27:21;;;;;;;;;;;;;;;;;;5029148;28;19971;-55
2023/12/19 04:29:47;;;;;;;;;;;;;;;;;;5030677;28;20320;-56
2023/12/19 04:32:13;;;;;;;;;;;;;;;;;;5025236;28;19940;-56
2023/12/19 04:34:39;;;;;;;;;;;;;;;;;;5024647;28;20018;-56
2023/12/19 04:37:05;;;;;;;;;;;;;;;;;;5031583;28;19963;-56
2023/12/19 04:39:31;;;;;;;;;;;;;;;;;;5032716;28;19921;-56
2023/12/19 04:41:59;;;;;;;;;;;;;;;;;;5027443;28;19955;-57
2023/12/19 04:44:25;;;;;;;;;;;;;;;;;;5020626;28;19914;-56
2023/12/19 04:46:51;;;;;;;;;;;;;;;;;;5029384;28;20128;-56
2023/12/19 04:49:17;;;;;;;;;;;;;;;;;;5022359;28;19970;-57
2023/12/19 04:51:42;;;;;;;;;;;;;;;;;;5029260;28;19967;-57
2023/12/19 04:54:08;;;;;;;;;;;;;;;;;;5030255;28;20047;-56
2023/12/19 04:56:37;;;;;;;;;;;;;;;;;;5027531;28;19963;-53
2023/12/19 04:59:04;;;;;;;;;;;;;;;;;;5028139;28;19936;-52
2023/12/19 05:01:30;;;;;;;;;;;;;;;;;;5029946;28;19967;-54
2023/12/19 05:03:56;;;;;;;;;;;;;;;;;;5030072;28;20388;-54
2023/12/19 05:06:22;;;;;;;;;;;;;;;;;;5024902;28;20339;-54
2023/12/19 05:08:49;;;;;;;;;;;;;;;;;;5022774;28;20298;-54
2023/12/19 05:11:15;;;;;;;;;;;;;;;;;;5030664;28;19928;-52
2023/12/19 05:13:41;;;;;;;;;;;;;;;;;;5026487;28;20032;-53
2023/12/19 05:16:07;;;;;;;;;;;;;;;;;;5029525;28;19925;-51
2023/12/19 05:18:33;;;;;;;;;;;;;;;;;;5028640;28;19945;-53
2023/12/19 05:20:59;;;;;;;;;;;;;;;;;;5029621;28;19928;-53
2023/12/19 05:23:25;;;;;;;;;;;;;;;;;;5029340;28;19972;-52
2023/12/19 05:25:51;;;;;;;;;;;;;;;;;;5029275;28;19949;-54
2023/12/19 05:28:17;;;;;;;;;;;;;;;;;;5026410;28;19944;-52
2023/12/19 05:30:43;;;;;;;;;;;;;;;;;;5024289;28;19945;-52
2023/12/19 05:33:09;;;;;;;;;;;;;;;;;;5028464;28;20040;-53
2023/12/19 05:35:35;;;;;;;;;;;;;;;;;;5029541;28;20098;-53
2023/12/19 05:38:01;;;;;;;;;;;;;;;;;;5029411;28;20056;-52
2023/12/19 05:40:27;;;;;;;;;;;;;;;;;;5023999;28;20018;-52
2023/12/19 05:42:56;;;;;;;;;;;;;;;;;;5028499;28;19956;-53
2023/12/19 05:45:22;;;;;;;;;;;;;;;;;;5030048;28;19919;-53
2023/12/19 05:47:48;;;;;;;;;;;;;;;;;;5026089;28;20012;-54
2023/12/19 05:50:14;;;;;;;;;;;;;;;;;;5026291;28;19988;-52
2023/12/19 05:52:40;;;;;;;;;;;;;;;;;;5029100;28;19967;-53
2023/12/19 05:55:06;;;;;;;;;;;;;;;;;;5025571;28;19925;-53
2023/12/19 05:57:32;;;;;;;;;;;;;;;;;;5024938;28;19968;-52
2023/12/19 05:59:58;;;;;;;;;;;;;;;;;;5024875;28;20063;-52
2023/12/19 06:02:24;;;;;;;;;;;;;;;;;;5027739;28;19956;-52
2023/12/19 06:04:50;;;;;;;;;;;;;;;;;;5025252;28;20007;-52
2023/12/19 06:07:16;;;;;;;;;;;;;;;;;;5028801;28;19940;-57
2023/12/19 06:09:42;;;;;;;;;;;;;;;;;;5027275;28;19956;-56
2023/12/19 06:12:10;;;;;;;;;;;;;;;;;;5026849;28;19982;-56
2023/12/19 06:14:36;;;;;;;;;;;;;;;;;;5023880;28;20800;-56
2023/12/19 06:17:02;;;;;;;;;;;;;;;;;;5025434;28;20020;-57
2023/12/19 06:19:28;;;;;;;;;;;;;;;;;;5028907;28;19996;-57
2023/12/19 06:21:54;;;;;;;;;;;;;;;;;;5026153;28;19956;-57
2023/12/19 06:24:20;;;;;;;;;;;;;;;;;;5027426;28;20032;-56
2023/12/19 06:26:46;;;;;;;;;;;;;;;;;;5027675;28;20359;-56
2023/12/19 06:29:12;;;;;;;;;;;;;;;;;;5029108;28;19917;-56
2023/12/19 06:31:38;;;;;;;;;;;;;;;;;;5026950;28;20072;-57
2023/12/19 06:34:04;;;;;;;;;;;;;;;;;;5028972;28;20079;-57
2023/12/19 06:36:31;;;;;;;;;;;;;;;;;;5028812;28;20038;-55
2023/12/19 06:38:57;;;;;;;;;;;;;;;;;;5027692;28;19921;-56
2023/12/19 06:41:23;;;;;;;;;;;;;;;;;;5027177;28;19963;-57
2023/12/19 06:43:49;;;;;;;;;;;;;;;;;;5027851;28;20344;-57
2023/12/19 06:46:14;;;;;;;;;;;;;;;;;;5021703;28;19956;-56
2023/12/19 06:48:41;;;;;;;;;;;;;;;;;;5020489;28;20012;-56
2023/12/19 06:51:07;;;;;;;;;;;;;;;;;;5021146;28;20004;-56
2023/12/19 06:53:33;;;;;;;;;;;;;;;;;;5026362;28;20389;-55
2023/12/19 06:55:59;;;;;;;;;;;;;;;;;;5026595;28;19960;-55
2023/12/19 06:58:25;;;;;;;;;;;;;;;;;;5027267;28;19956;-56
2023/12/19 07:00:51;;;;;;;;;;;;;;;;;;5027913;28;19955;-56
2023/12/19 07:03:18;;;;;;;;;;;;;;;;;;5028583;28;19979;-56
2023/12/19 07:05:44;;;;;;;;;;;;;;;;;;5029569;28;20288;-56
2023/12/19 07:08:10;;;;;;;;;;;;;;;;;;5030959;28;19965;-56
2023/12/19 07:10:35;;;;;;;;;;;;;;;;;;5041529;28;19952;-55
2023/12/19 07:13:01;;;;;;;;;;;;;;;;;;5029942;28;20001;-56
2023/12/19 07:15:28;;;;;;;;;;;;;;;;;;5027080;28;20014;-56
2023/12/19 07:17:54;;;;;;;;;;;;;;;;;;5031622;28;19913;-56
2023/12/19 07:20:19;;;;;;;;;;;;;;;;;;5032026;28;19963;-56
2023/12/19 07:22:45;;;;;;;;;;;;;;;;;;5026335;28;20023;-56
2023/12/19 07:25:11;;;;;;;;;;;;;;;;;;5026432;28;19923;-56
2023/12/19 07:27:37;;;;;;;;;;;;;;;;;;5027282;28;20431;-56
2023/12/19 07:30:05;;;;;;;;;;;;;;;;;;5027286;28;19947;-56
2023/12/19 07:32:31;;;;;;;;;;;;;;;;;;5031619;28;20392;-56
2023/12/19 07:34:56;;;;;;;;;;;;;;;;;;5022922;28;19918;-55
2023/12/19 07:37:22;;;;;;;;;;;;;;;;;;5031539;28;20325;-56
2023/12/19 07:39:48;;;;;;;;;;;;;;;;;;5039034;28;20349;-56
2023/12/19 07:42:14;;;;;;;;;;;;;;;;;;5035919;28;20000;-56
2023/12/19 07:44:40;;;;;;;;;;;;;;;;;;5032390;28;19948;-56
2023/12/19 07:47:07;;;;;;;;;;;;;;;;;;5028767;28;20376;-56
2023/12/19 07:49:33;;;;;;;;;;;;;;;;;;5025429;28;19917;-56
2023/12/19 07:51:59;;;;;;;;;;;;;;;;;;5031368;28;20426;-56
2023/12/19 07:54:25;;;;;;;;;;;;;;;;;;5028538;28;19914;-56
2023/12/19 07:56:52;;;;;;;;;;;;;;;;;;5031457;28;19940;-55
2023/12/19 07:59:18;;;;;;;;;;;;;;;;;;5040495;28;20442;-56
2023/12/19 08:01:44;;;;;;;;;;;;;;;;;;5031298;28;19967;-56
2023/12/19 08:04:10;;;;;;;;;;;;;;;;;;5029669;28;19960;-55
2023/12/19 08:06:36;;;;;;;;;;;;;;;;;;5028648;28;20414;-55
2023/12/19 08:09:02;;;;;;;;;;;;;;;;;;5030738;28;19948;-56
2023/12/19 08:11:28;;;;;;;;;;;;;;;;;;5028036;28;19933;-56
2023/12/19 08:13:54;;;;;;;;;;;;;;;;;;5025141;28;20321;-57
2023/12/19 08:16:21;;;;;;;;;;;;;;;;;;5030019;28;19987;-56
2023/12/19 08:18:50;;;;;;;;;;;;;;;;;;5039057;28;19917;-57
2023/12/19 08:21:16;;;;;;;;;;;;;;;;;;5028824;28;20395;-56
2023/12/19 08:23:42;;;;;;;;;;;;;;;;;;5020784;28;19921;-55
2023/12/19 08:26:09;;;;;;;;;;;;;;;;;;5031165;28;20007;-57
2023/12/19 08:28:35;;;;;;;;;;;;;;;;;;5034564;28;19917;-57
2023/12/19 08:31:03;;;;;;;;;;;;;;;;;;5031816;28;20292;-57
2023/12/19 08:33:29;;;;;;;;;;;;;;;;;;5029156;28;19963;-56
2023/12/19 08:35:55;;;;;;;;;;;;;;;;;;5031352;28;20007;-57
2023/12/19 08:38:21;;;;;;;;;;;;;;;;;;5031016;28;20535;-57
2023/12/19 08:40:47;;;;;;;;;;;;;;;;;;5038095;28;20407;-56
2023/12/19 08:43:13;;;;;;;;;;;;;;;;;;5022269;28;20428;-57
2023/12/19 08:45:38;;;;;;;;;;;;;;;;;;5031621;28;19967;-58
2023/12/19 08:48:04;;;;;;;;;;;;;;;;;;5039205;28;19962;-58
2023/12/19 08:50:30;;;;;;;;;;;;;;;;;;5030489;28;20326;-57
2023/12/19 08:52:56;;;;;;;;;;;;;;;;;;5027363;28;20431;-57
2023/12/19 08:55:22;;;;;;;;;;;;;;;;;;5029972;28;19917;-57
2023/12/19 08:57:51;;;;;;;;;;;;;;;;;;5031678;28;19963;-57
2023/12/19 09:00:18;;;;;;;;;;;;;;;;;;5026222;28;19944;-57
2023/12/19 09:02:44;;;;;;;;;;;;;;;;;;5029544;28;19933;-57
2023/12/19 09:05:10;;;;;;;;;;;;;;;;;;5029967;28;20007;-57
2023/12/19 09:07:36;;;;;;;;;;;;;;;;;;5033239;28;20015;-57
2023/12/19 09:10:02;;;;;;;;;;;;;;;;;;5025646;28;20393;-57
2023/12/19 09:12:28;;;;;;;;;;;;;;;;;;5028302;28;19953;-57
2023/12/19 09:14:54;;;;;;;;;;;;;;;;;;5028508;28;19956;-57
2023/12/19 09:17:20;;;;;;;;;;;;;;;;;;5026207;28;19978;-57
2023/12/19 09:19:46;;;;;;;;;;;;;;;;;;5041149;28;20059;-57
2023/12/19 09:22:12;;;;;;;;;;;;;;;;;;5026620;28;19944;-58
2023/12/19 09:24:38;;;;;;;;;;;;;;;;;;5028418;28;19949;-56
2023/12/19 09:27:04;;;;;;;;;;;;;;;;;;5030438;28;19960;-57
2023/12/19 09:29:30;;;;;;;;;;;;;;;;;;5037086;28;19920;-56
2023/12/19 09:31:56;;;;;;;;;;;;;;;;;;5024357;28;19976;-57
2023/12/19 09:34:22;;;;;;;;;;;;;;;;;;5028741;28;19974;-58
2023/12/19 09:36:48;;;;;;;;;;;;;;;;;;5027514;28;19999;-54
2023/12/19 09:39:14;;;;;;;;;;;;;;;;;;5029005;28;19961;-54
2023/12/19 09:41:40;;;;;;;;;;;;;;;;;;5027895;28;19921;-55
2023/12/19 09:44:06;;;;;;;;;;;;;;;;;;5028124;28;19949;-56
2023/12/19 09:46:33;;;;;;;;;;;;;;;;;;5026847;28;20302;-56
2023/12/19 09:48:59;;;;;;;;;;;;;;;;;;5022823;28;20015;-56
2023/12/19 09:51:25;;;;;;;;;;;;;;;;;;5028532;28;20039;-55
2023/12/19 09:53:53;;;;;;;;;;;;;;;;;;5028414;28;19960;-55
2023/12/19 09:56:19;;;;;;;;;;;;;;;;;;5029034;28;19932;-55
2023/12/19 09:58:45;;;;;;;;;;;;;;;;;;5024886;28;20046;-55
2023/12/19 10:01:11;;;;;;;;;;;;;;;;;;5027343;28;19953;-56
2023/12/19 10:03:38;;;;;;;;;;;;;;;;;;5027539;28;19959;-56
2023/12/19 10:06:06;;;;;;;;;;;;;;;;;;5027185;28;20034;-55
2023/12/19 10:08:33;;;;;;;;;;;;;;;;;;5025621;28;20007;-56
2023/12/19 10:10:59;;;;;;;;;;;;;;;;;;5019995;28;19932;-56
2023/12/19 10:13:25;;;;;;;;;;;;;;;;;;5028069;28;19917;-55
2023/12/19 10:15:51;;;;;;;;;;;;;;;;;;5025214;28;19947;-55
2023/12/19 10:18:17;;;;;;;;;;;;;;;;;;5027967;28;20352;-54
2023/12/19 10:20:43;;;;;;;;;;;;;;;;;;5028394;28;20337;-55
2023/12/19 10:23:10;;;;;;;;;;;;;;;;;;5026899;28;19971;-55
2023/12/19 10:25:36;;;;;;;;;;;;;;;;;;5028692;28;20023;-55
2023/12/19 10:28:02;;;;;;;;;;;;;;;;;;5024234;28;19964;-55
2023/12/19 10:30:28;;;;;;;;;;;;;;;;;;5024947;28;19967;-54
2023/12/19 10:32:54;;;;;;;;;;;;;;;;;;5029831;28;20027;-54
2023/12/19 10:35:20;;;;;;;;;;;;;;;;;;5033730;28;19959;-56
2023/12/19 10:37:46;;;;;;;;;;;;;;;;;;5024415;28;19956;-55
2023/12/19 10:40:14;;;;;;;;;;;;;;;;;;5027016;28;20053;-54
2023/12/19 10:42:40;;;;;;;;;;;;;;;;;;5028550;28;20541;-55
2023/12/19 10:45:06;;;;;;;;;;;;;;;;;;5035641;28;19945;-55
2023/12/19 10:47:32;;;;;;;;;;;;;;;;;;5030282;28;19960;-56
2023/12/19 10:49:58;;;;;;;;;;;;;;;;;;5041722;28;20011;-52
2023/12/19 10:52:24;;;;;;;;;;;;;;;;;;5028548;28;20398;-53
2023/12/19 10:54:50;;;;;;;;;;;;;;;;;;5033487;28;19917;-55
2023/12/19 10:57:16;;;;;;;;;;;;;;;;;;5028517;28;19951;-53
2023/12/19 10:59:42;;;;;;;;;;;;;;;;;;5028196;28;19955;-53
2023/12/19 11:02:08;;;;;;;;;;;;;;;;;;5028707;28;19921;-52
2023/12/19 11:04:34;;;;;;;;;;;;;;;;;;5023414;28;19970;-55
2023/12/19 11:07:00;;;;;;;;;;;;;;;;;;5028103;28;20062;-53
2023/12/19 11:09:26;;;;;;;;;;;;;;;;;;5025606;28;19997;-53
2023/12/19 11:11:52;;;;;;;;;;;;;;;;;;5023718;28;20019;-52
2023/12/19 11:14:23;;;;;;;;;;;;;;;;;;5026138;28;21845;-53
2023/12/19 11:16:49;;;;;;;;;;;;;;;;;;5022904;28;19947;-52
2023/12/19 11:19:15;;;;;;;;;;;;;;;;;;5026138;28;20286;-54
2023/12/19 11:21:42;;;;;;;;;;;;;;;;;;5026392;28;20035;-53
2023/12/19 11:24:08;;;;;;;;;;;;;;;;;;5028050;28;19944;-52
2023/12/19 11:26:34;;;;;;;;;;;;;;;;;;5026388;28;19935;-52
2023/12/19 11:28:59;;;;;;;;;;;;;;;;;;5027353;28;20424;-52
2023/12/19 11:31:25;;;;;;;;;;;;;;;;;;5023734;28;19960;-53
2023/12/19 11:33:51;;;;;;;;;;;;;;;;;;5026983;28;19957;-52
2023/12/19 11:36:18;;;;;;;;;;;;;;;;;;5027961;28;19957;-52
2023/12/19 11:38:44;;;;;;;;;;;;;;;;;;5027383;28;19913;-53
2023/12/19 11:41:10;;;;;;;;;;;;;;;;;;5028649;28;19966;-51
2023/12/19 11:43:36;;;;;;;;;;;;;;;;;;5028108;28;20354;-52
2023/12/19 11:46:02;;;;;;;;;;;;;;;;;;5028009;28;19913;-53
2023/12/19 11:48:28;;;;;;;;;;;;;;;;;;5027609;28;20537;-52
2023/12/19 11:50:54;;;;;;;;;;;;;;;;;;5009467;28;19983;-53
2023/12/19 11:53:20;;;;;;;;;;;;;;;;;;5028066;28;20006;-52
2023/12/19 11:55:46;;;;;;;;;;;;;;;;;;5027668;28;19956;-52
2023/12/19 11:58:12;;;;;;;;;;;;;;;;;;5027561;28;19921;-55
2023/12/19 12:00:38;;;;;;;;;;;;;;;;;;5028192;28;19913;-55
2023/12/19 12:03:04;;;;;;;;;;;;;;;;;;5027376;28;19955;-55
2023/12/19 12:05:30;;;;;;;;;;;;;;;;;;5027551;28;19948;-54
2023/12/19 12:07:56;;;;;;;;;;;;;;;;;;5027531;28;19952;-55
2023/12/19 12:10:22;;;;;;;;;;;;;;;;;;5027646;28;20011;-55
2023/12/19 12:12:48;;;;;;;;;;;;;;;;;;5025880;28;19917;-54
2023/12/19 12:15:14;;;;;;;;;;;;;;;;;;5020123;28;20422;-54
2023/12/19 12:17:40;;;;;;;;;;;;;;;;;;5024976;28;20507;-54
2023/12/19 12:20:06;;;;;;;;;;;;;;;;;;5028241;28;19917;-54
2023/12/19 12:22:32;;;;;;;;;;;;;;;;;;5028635;28;20367;-55
2023/12/19 12:24:58;;;;;;;;;;;;;;;;;;5031489;28;20111;-55
2023/12/19 12:27:24;;;;;;;;;;;;;;;;;;5029950;28;20000;-55
2023/12/19 12:29:51;;;;;;;;;;;;;;;;;;5030987;28;19990;-56
2023/12/19 12:32:17;;;;;;;;;;;;;;;;;;5029373;28;19925;-55
2023/12/19 12:34:45;;;;;;;;;;;;;;;;;;5028607;28;19949;-55
2023/12/19 12:37:11;;;;;;;;;;;;;;;;;;5027496;28;19923;-55
2023/12/19 12:39:37;;;;;;;;;;;;;;;;;;5030644;28;20272;-55
2023/12/19 12:42:03;;;;;;;;;;;;;;;;;;5027922;28;19980;-55
2023/12/19 12:44:30;;;;;;;;;;;;;;;;;;5029368;28;20385;-55
2023/12/19 12:46:55;;;;;;;;;;;;;;;;;;5028679;28;19956;-55
2023/12/19 12:49:21;;;;;;;;;;;;;;;;;;5026505;28;19956;-55
2023/12/19 12:51:50;;;;;;;;;;;;;;;;;;5030991;28;20018;-55
2023/12/19 12:54:16;;;;;;;;;;;;;;;;;;5029807;28;19995;-54
2023/12/19 12:56:42;;;;;;;;;;;;;;;;;;5026759;28;20013;-55
2023/12/19 12:59:08;;;;;;;;;;;;;;;;;;5029824;28;19952;-54
2023/12/19 13:01:34;;;;;;;;;;;;;;;;;;5029495;28;20348;-56
2023/12/19 13:04:01;;;;;;;;;;;;;;;;;;5026897;28;19943;-55
2023/12/19 13:06:27;;;;;;;;;;;;;;;;;;5028117;28;20292;-56
2023/12/19 13:08:52;;;;;;;;;;;;;;;;;;5028023;28;20007;-56
2023/12/19 13:11:19;;;;;;;;;;;;;;;;;;5029059;28;19964;-56
2023/12/19 13:13:44;;;;;;;;;;;;;;;;;;5028319;28;20384;-57
2023/12/19 13:16:11;;;;;;;;;;;;;;;;;;5029137;28;19960;-56
2023/12/19 13:18:36;;;;;;;;;;;;;;;;;;5029734;28;20328;-56
2023/12/19 13:21:03;;;;;;;;;;;;;;;;;;5030477;28;19952;-57
2023/12/19 13:23:29;;;;;;;;;;;;;;;;;;5024140;28;20380;-56
2023/12/19 13:25:56;;;;;;;;;;;;;;;;;;5025165;28;19963;-57
2023/12/19 13:28:22;;;;;;;;;;;;;;;;;;5027118;28;20164;-57
2023/12/19 13:30:52;;;;;;;;;;;;;;;;;;5011588;28;19964;-57
2023/12/19 13:33:18;;;;;;;;;;;;;;;;;;5020863;28;19924;-57
2023/12/19 13:35:44;;;;;;;;;;;;;;;;;;5025609;28;20440;-56
2023/12/19 13:38:10;;;;;;;;;;;;;;;;;;5023480;28;19952;-57
2023/12/19 13:40:36;;;;;;;;;;;;;;;;;;5027911;28;19913;-57
2023/12/19 13:43:05;;;;;;;;;;;;;;;;;;5025834;28;20499;-57
2023/12/19 13:45:31;;;;;;;;;;;;;;;;;;5024633;28;19932;-56
2023/12/19 13:48:01;;;;;;;;;;;;;;;;;;5025528;28;19917;-56
2023/12/19 13:50:27;;;;;;;;;;;;;;;;;;5023965;28;19913;-57
2023/12/19 13:52:53;;;;;;;;;;;;;;;;;;5025184;28;20344;-57
2023/12/19 13:55:19;;;;;;;;;;;;;;;;;;5029673;28;19917;-56
2023/12/19 13:57:45;;;;;;;;;;;;;;;;;;5022602;28;20349;-56
2023/12/19 14:00:14;;;;;;;;;;;;;;;;;;5023480;28;19961;-57
2023/12/19 14:02:40;;;;;;;;;;;;;;;;;;5028300;28;19968;-57
2023/12/19 14:05:09;;;;;;;;;;;;;;;;;;5027128;28;19952;-56
2023/12/19 14:07:35;;;;;;;;;;;;;;;;;;5026984;28;20464;-56
2023/12/19 14:10:01;;;;;;;;;;;;;;;;;;5020756;28;20020;-56
2023/12/19 14:12:28;;;;;;;;;;;;;;;;;;5024077;28;19968;-56
2023/12/19 14:14:54;;;;;;;;;;;;;;;;;;5027143;28;20594;-54
2023/12/19 14:17:20;;;;;;;;;;;;;;;;;;5024147;28;19956;-56
2023/12/19 14:19:46;;;;;;;;;;;;;;;;;;5023727;28;19948;-56
2023/12/19 14:22:12;;;;;;;;;;;;;;;;;;5024430;28;19956;-56
2023/12/19 14:24:39;;;;;;;;;;;;;;;;;;5028523;28;19913;-56
2023/12/19 14:27:05;;;;;;;;;;;;;;;;;;5026969;28;20349;-53
2023/12/19 14:29:31;;;;;;;;;;;;;;;;;;5027590;28;19987;-52
2023/12/19 14:31:57;;;;;;;;;;;;;;;;;;5027413;28;20011;-52
2023/12/19 14:34:23;;;;;;;;;;;;;;;;;;5026772;28;20012;-52
2023/12/19 14:36:49;;;;;;;;;;;;;;;;;;5020536;28;21886;-53
2023/12/19 14:39:15;;;;;;;;;;;;;;;;;;5025935;28;19964;-53
2023/12/19 14:41:44;;;;;;;;;;;;;;;;;;5025756;28;19931;-52
2023/12/19 14:44:10;;;;;;;;;;;;;;;;;;5024182;28;19917;-54
2023/12/19 14:46:36;;;;;;;;;;;;;;;;;;5022253;28;19927;-53
2023/12/19 14:49:02;;;;;;;;;;;;;;;;;;5023534;28;20012;-52
2023/12/19 14:51:28;;;;;;;;;;;;;;;;;;5026177;28;19917;-53
2023/12/19 14:53:56;;;;;;;;;;;;;;;;;;5026614;28;20327;-53
2023/12/19 14:56:22;;;;;;;;;;;;;;;;;;5027538;28;20616;-53
2023/12/19 14:58:48;;;;;;;;;;;;;;;;;;5027438;28;20007;-53
2023/12/19 15:01:14;;;;;;;;;;;;;;;;;;5028033;28;19955;-52
2023/12/19 15:03:41;;;;;;;;;;;;;;;;;;5023687;28;19966;-52
2023/12/19 15:06:08;;;;;;;;;;;;;;;;;;5022058;28;20377;-54
2023/12/19 15:08:34;;;;;;;;;;;;;;;;;;5024359;28;19921;-53
2023/12/19 15:10:59;;;;;;;;;;;;;;;;;;5019233;28;19982;-53
2023/12/19 15:13:25;;;;;;;;;;;;;;;;;;5025417;28;20095;-53
2023/12/19 15:15:52;;;;;;;;;;;;;;;;;;5020934;28;20051;-52
2023/12/19 15:18:18;;;;;;;;;;;;;;;;;;5024686;28;19992;-52
2023/12/19 15:20:44;;;;;;;;;;;;;;;;;;5022410;28;19929;-53
2023/12/19 15:23:10;;;;;;;;;;;;;;;;;;5023198;28;20015;-53
2023/12/19 15:25:36;;;;;;;;;;;;;;;;;;5021911;28;20338;-52
2023/12/19 15:28:02;;;;;;;;;;;;;;;;;;5026479;28;19917;-52
2023/12/19 15:30:28;;;;;;;;;;;;;;;;;;5025634;28;19913;-51
2023/12/19 15:32:57;;;;;;;;;;;;;;;;;;5022829;28;20008;-52
2023/12/19 15:35:23;;;;;;;;;;;;;;;;;;5025046;28;20031;-51
2023/12/19 15:37:49;;;;;;;;;;;;;;;;;;5024688;28;20075;-57
2023/12/19 15:40:15;;;;;;;;;;;;;;;;;;5026502;28;20014;-58
2023/12/19 15:42:41;;;;;;;;;;;;;;;;;;5024604;28;19983;-56
2023/12/19 15:45:07;;;;;;;;;;;;;;;;;;5007457;28;20340;-56
2023/12/19 15:47:33;;;;;;;;;;;;;;;;;;5024321;28;19916;-58
2023/12/19 15:49:59;;;;;;;;;;;;;;;;;;5024314;28;19928;-56
2023/12/19 15:52:28;;;;;;;;;;;;;;;;;;5023451;28;19956;-57
2023/12/19 15:54:54;;;;;;;;;;;;;;;;;;5019607;28;19961;-57
2023/12/19 15:57:20;;;;;;;;;;;;;;;;;;5025356;28;19952;-58
2023/12/19 15:59:46;;;;;;;;;;;;;;;;;;5029632;28;19971;-57
2023/12/19 16:02:12;;;;;;;;;;;;;;;;;;5024856;28;20050;-57
2023/12/19 16:04:43;;;;;;;;;;;;;;;;;;5011970;28;19924;-57
2023/12/19 16:07:09;;;;;;;;;;;;;;;;;;5026649;28;19925;-57
2023/12/19 16:09:35;;;;;;;;;;;;;;;;;;5027416;28;20064;-57
2023/12/19 16:12:01;;;;;;;;;;;;;;;;;;5029821;28;20108;-56
2023/12/19 16:14:27;;;;;;;;;;;;;;;;;;5028377;28;19962;-56
2023/12/19 16:16:54;;;;;;;;;;;;;;;;;;5010941;28;20215;-57
2023/12/19 16:19:20;;;;;;;;;;;;;;;;;;5029589;28;19925;-58
2023/12/19 16:21:46;;;;;;;;;;;;;;;;;;5023676;28;19993;-57
2023/12/19 16:24:12;;;;;;;;;;;;;;;;;;5029095;28;20398;-56
2023/12/19 16:26:38;;;;;;;;;;;;;;;;;;5020469;28;19963;-56
2023/12/19 16:29:03;;;;;;;;;;;;;;;;;;5030142;28;19968;-57
2023/12/19 16:31:29;;;;;;;;;;;;;;;;;;5027591;28;19956;-56
2023/12/19 16:33:55;;;;;;;;;;;;;;;;;;5027108;28;20245;-57
2023/12/19 16:36:21;;;;;;;;;;;;;;;;;;5022778;28;20032;-57
2023/12/19 16:38:47;;;;;;;;;;;;;;;;;;5024958;28;20387;-56